createdAt,value
2018-05-29T00:01:02.311Z,58.50
2018-05-29T00:03:28.807Z,58.60
2018-05-29T00:05:56.385Z,59.50
2018-05-29T00:08:23.152Z,59.50
2018-05-29T00:10:49.337Z,59.50
2018-05-29T00:13:16.237Z,59.60
2018-05-29T00:15:42.534Z,59.50
2018-05-29T00:18:09.567Z,59.80
2018-05-29T00:20:36.626Z,59.70
2018-05-29T00:23:04.559Z,59.70
2018-05-29T00:25:30.837Z,59.70
2018-05-29T00:27:58.486Z,60.10
2018-05-29T00:30:27.525Z,60.70
2018-05-29T00:32:53.728Z,60.70
2018-05-29T00:35:20.567Z,60.80
2018-05-29T00:37:47.870Z,61.10
2018-05-29T00:40:15.281Z,61.60
2018-05-29T00:42:41.505Z,62.10
2018-05-29T00:45:07.678Z,62.60
2018-05-29T00:47:34.473Z,61.70
2018-05-29T00:50:01.301Z,62.00
2018-05-29T00:52:28.158Z,61.40
2018-05-29T00:55:06.660Z,62.10
2018-05-29T00:57:32.892Z,61.90
2018-05-29T00:59:59.241Z,61.90
2018-05-29T01:02:26.147Z,61.50
2018-05-29T01:04:54.582Z,62.00
2018-05-29T01:07:21.349Z,61.80
2018-05-29T01:09:47.831Z,62.70
2018-05-29T01:12:14.292Z,62.40
2018-05-29T01:14:41.304Z,62.90
2018-05-29T01:17:09.068Z,62.80
2018-05-29T01:19:35.481Z,63.00
2018-05-29T01:22:03.080Z,63.60
2018-05-29T01:24:29.873Z,63.50
2018-05-29T01:26:57.639Z,63.40
2018-05-29T01:29:24.763Z,61.80
2018-05-29T01:31:51.768Z,62.10
2018-05-29T01:34:18.092Z,62.80
2018-05-29T01:36:44.488Z,62.40
2018-05-29T01:39:12.058Z,62.10
2018-05-29T01:41:39.047Z,60.60
2018-05-29T01:44:05.629Z,60.50
2018-05-29T01:46:32.584Z,59.90
2018-05-29T01:49:00.047Z,59.60
2018-05-29T01:51:27.011Z,58.60
2018-05-29T01:53:54.433Z,58.60
2018-05-29T01:56:21.725Z,57.90
2018-05-29T01:58:48.329Z,57.80
2018-05-29T02:01:15.274Z,57.30
2018-05-29T02:03:42.258Z,58.00
2018-05-29T02:06:09.114Z,58.00
2018-05-29T02:08:35.992Z,57.50
2018-05-29T02:11:02.601Z,57.80
2018-05-29T02:13:29.477Z,57.30
2018-05-29T02:15:56.433Z,56.60
2018-05-29T02:18:22.669Z,56.60
2018-05-29T02:20:50.379Z,56.70
2018-05-29T02:23:16.860Z,56.70
2018-05-29T02:25:44.252Z,56.90
2018-05-29T02:28:11.812Z,56.70
2018-05-29T02:30:40.000Z,56.80
2018-05-29T02:33:06.773Z,56.80
2018-05-29T02:35:34.811Z,56.40
2018-05-29T02:38:01.301Z,56.30
2018-05-29T02:40:28.245Z,56.10
2018-05-29T02:42:54.783Z,55.80
2018-05-29T02:45:21.977Z,55.60
2018-05-29T02:47:48.953Z,56.00
2018-05-29T02:50:16.580Z,55.80
2018-05-29T02:52:42.838Z,55.80
2018-05-29T02:55:09.651Z,56.00
2018-05-29T02:57:37.002Z,56.30
2018-05-29T03:00:04.189Z,56.10
2018-05-29T03:02:38.582Z,55.80
2018-05-29T03:05:05.421Z,55.70
2018-05-29T03:07:32.923Z,56.10
2018-05-29T03:10:00.711Z,56.70
2018-05-29T03:12:27.478Z,56.70
2018-05-29T03:14:53.674Z,56.00
2018-05-29T03:17:19.938Z,56.60
2018-05-29T03:19:46.150Z,56.90
2018-05-29T03:22:12.349Z,56.90
2018-05-29T03:24:39.954Z,57.10
2018-05-29T03:27:08.055Z,57.30
2018-05-29T03:29:35.611Z,57.20
2018-05-29T03:32:04.113Z,57.90
2018-05-29T03:34:32.711Z,57.80
2018-05-29T03:36:58.919Z,57.80
2018-05-29T03:39:26.743Z,58.50
2018-05-29T03:41:54.236Z,58.60
2018-05-29T03:44:21.905Z,58.50
2018-05-29T03:46:49.796Z,58.70
2018-05-29T03:49:16.256Z,58.70
2018-05-29T03:51:43.250Z,59.60
2018-05-29T03:54:11.224Z,59.70
2018-05-29T03:56:38.893Z,59.60
2018-05-29T03:59:05.400Z,59.60
2018-05-29T04:01:32.976Z,59.70
2018-05-29T04:03:59.925Z,60.20
2018-05-29T04:06:26.873Z,59.80
2018-05-29T04:08:55.229Z,60.00
2018-05-29T04:11:22.175Z,60.00
2018-05-29T04:13:49.127Z,60.00
2018-05-29T04:16:16.732Z,60.00
2018-05-29T04:18:43.975Z,60.00
2018-05-29T04:21:10.634Z,60.30
2018-05-29T04:23:37.621Z,59.30
2018-05-29T04:26:05.100Z,59.50
2018-05-29T04:28:31.323Z,59.50
2018-05-29T04:30:58.318Z,59.90
2018-05-29T04:33:25.473Z,58.90
2018-05-29T04:35:52.326Z,58.80
2018-05-29T04:38:18.802Z,57.90
2018-05-29T04:40:45.827Z,57.00
2018-05-29T04:43:13.231Z,56.60
2018-05-29T04:45:41.395Z,56.70
2018-05-29T04:48:08.625Z,56.60
2018-05-29T04:50:35.406Z,56.30
2018-05-29T04:53:02.346Z,56.10
2018-05-29T04:55:28.541Z,56.10
2018-05-29T04:57:55.433Z,55.80
2018-05-29T05:00:22.349Z,55.60
2018-05-29T05:02:49.168Z,54.80
2018-05-29T05:05:16.492Z,54.20
2018-05-29T05:07:43.279Z,53.60
2018-05-29T05:10:10.034Z,53.20
2018-05-29T05:12:37.590Z,53.10
2018-05-29T05:15:04.811Z,52.80
2018-05-29T05:17:31.425Z,53.60
2018-05-29T05:19:59.044Z,53.00
2018-05-29T05:22:25.234Z,53.00
2018-05-29T05:24:52.441Z,56.50
2018-05-29T05:27:18.712Z,52.50
2018-05-29T05:29:45.440Z,51.40
2018-05-29T05:32:13.639Z,51.10
2018-05-29T05:34:40.680Z,50.40
2018-05-29T05:37:07.523Z,50.40
2018-05-29T05:39:34.787Z,50.60
2018-05-29T05:42:01.219Z,50.10
2018-05-29T05:44:28.448Z,48.80
2018-05-29T05:46:54.645Z,46.40
2018-05-29T05:49:22.058Z,45.40
2018-05-29T05:51:48.261Z,46.30
2018-05-29T05:54:14.489Z,44.50
2018-05-29T05:56:40.687Z,43.90
2018-05-29T05:59:07.581Z,43.20
2018-05-29T06:01:34.710Z,43.20
2018-05-29T06:04:01.156Z,43.40
2018-05-29T06:06:28.380Z,41.40
2018-05-29T06:08:55.346Z,41.40
2018-05-29T06:11:22.600Z,41.40
2018-05-29T06:13:48.805Z,41.10
2018-05-29T06:16:15.774Z,41.30
2018-05-29T06:18:42.704Z,41.20
2018-05-29T06:21:08.913Z,40.20
2018-05-29T06:23:35.860Z,39.60
2018-05-29T06:26:02.864Z,39.60
2018-05-29T06:28:29.074Z,39.60
2018-05-29T06:30:55.861Z,39.70
2018-05-29T06:33:22.122Z,38.40
2018-05-29T06:35:48.997Z,39.00
2018-05-29T06:38:15.932Z,39.90
2018-05-29T06:40:43.556Z,39.10
2018-05-29T06:43:11.601Z,38.30
2018-05-29T06:45:39.168Z,38.30
2018-05-29T06:48:05.709Z,37.50
2018-05-29T06:50:32.959Z,37.00
2018-05-29T06:53:01.177Z,37.70
2018-05-29T06:55:28.416Z,37.60
2018-05-29T06:57:55.390Z,36.50
2018-05-29T07:00:23.042Z,37.30
2018-05-29T07:02:49.593Z,36.50
2018-05-29T07:05:16.564Z,36.70
2018-05-29T07:07:42.847Z,38.00
2018-05-29T07:10:09.150Z,36.40
2018-05-29T07:12:36.640Z,37.00
2018-05-29T07:15:03.561Z,37.00
2018-05-29T07:17:31.100Z,35.90
2018-05-29T07:19:58.670Z,36.70
2018-05-29T07:22:24.873Z,36.60
2018-05-29T07:24:51.604Z,35.80
2018-05-29T07:27:18.361Z,36.00
2018-05-29T07:29:44.546Z,35.80
2018-05-29T07:32:11.725Z,35.20
2018-05-29T07:34:39.529Z,35.00
2018-05-29T07:37:06.269Z,36.10
2018-05-29T07:39:32.507Z,36.50
2018-05-29T07:41:59.506Z,35.50
2018-05-29T07:44:26.299Z,35.20
2018-05-29T07:46:52.513Z,35.80
2018-05-29T07:49:18.783Z,35.40
2018-05-29T07:51:45.727Z,35.40
2018-05-29T07:54:12.519Z,34.60
2018-05-29T07:56:39.474Z,35.30
2018-05-29T07:59:06.279Z,35.30
2018-05-29T08:01:33.101Z,34.20
2018-05-29T08:03:59.343Z,35.40
2018-05-29T08:06:26.315Z,34.40
2018-05-29T08:08:53.055Z,34.80
2018-05-29T08:11:21.394Z,34.70
2018-05-29T08:13:49.293Z,34.60
2018-05-29T08:16:17.356Z,34.20
2018-05-29T08:18:45.099Z,34.20
2018-05-29T08:21:11.815Z,34.10
2018-05-29T08:23:38.560Z,34.20
2018-05-29T08:26:04.767Z,35.40
2018-05-29T08:28:31.670Z,34.90
2018-05-29T08:30:59.631Z,35.40
2018-05-29T08:33:26.224Z,35.40
2018-05-29T08:35:52.426Z,35.00
2018-05-29T08:38:19.167Z,33.30
2018-05-29T08:40:45.934Z,33.40
2018-05-29T08:43:12.576Z,34.00
2018-05-29T08:45:39.600Z,33.30
2018-05-29T08:48:05.906Z,33.30
2018-05-29T08:50:32.874Z,33.40
2018-05-29T08:52:59.234Z,33.40
2018-05-29T08:55:26.791Z,33.20
2018-05-29T08:57:53.022Z,33.10
2018-05-29T09:00:19.265Z,34.40
2018-05-29T09:02:46.996Z,34.00
2018-05-29T09:05:13.210Z,33.30
2018-05-29T09:07:39.660Z,33.40
2018-05-29T09:10:05.904Z,32.70
2018-05-29T09:12:32.208Z,32.10
2018-05-29T09:14:59.461Z,32.80
2018-05-29T09:17:25.892Z,32.30
2018-05-29T09:19:52.927Z,32.00
2018-05-29T09:22:20.716Z,31.90
2018-05-29T09:24:47.992Z,31.80
2018-05-29T09:27:15.224Z,31.40
2018-05-29T09:29:42.055Z,32.00
2018-05-29T09:32:08.466Z,33.10
2018-05-29T09:34:35.357Z,32.30
2018-05-29T09:37:02.151Z,32.70
2018-05-29T09:39:29.714Z,31.50
2018-05-29T09:41:55.923Z,31.90
2018-05-29T09:44:23.732Z,32.90
2018-05-29T09:46:49.933Z,32.90
2018-05-29T09:49:16.122Z,31.10
2018-05-29T09:51:43.786Z,31.80
2018-05-29T09:54:10.391Z,30.40
2018-05-29T09:56:38.066Z,30.20
2018-05-29T09:59:04.655Z,30.30
2018-05-29T10:01:31.995Z,30.20
2018-05-29T10:03:59.520Z,30.10
2018-05-29T10:06:25.750Z,30.10
2018-05-29T10:08:52.606Z,29.70
2018-05-29T10:11:19.911Z,30.50
2018-05-29T10:13:46.689Z,30.50
2018-05-29T10:16:13.934Z,30.10
2018-05-29T10:18:40.851Z,29.90
2018-05-29T10:21:07.672Z,29.70
2018-05-29T10:23:34.351Z,28.30
2018-05-29T10:26:01.572Z,29.70
2018-05-29T10:28:29.147Z,30.10
2018-05-29T10:30:55.422Z,30.00
2018-05-29T10:33:21.618Z,29.50
2018-05-29T10:35:47.847Z,28.70
2018-05-29T10:38:14.651Z,29.60
2018-05-29T10:40:41.437Z,29.90
2018-05-29T10:43:07.888Z,30.60
2018-05-29T10:45:35.522Z,30.90
2018-05-29T10:48:02.369Z,30.90
2018-05-29T10:50:29.109Z,31.60
2018-05-29T10:52:55.333Z,30.90
2018-05-29T10:55:22.265Z,30.70
2018-05-29T10:57:48.994Z,31.10
2018-05-29T11:00:17.504Z,30.20
2018-05-29T11:02:44.352Z,30.20
2018-05-29T11:05:11.146Z,30.30
2018-05-29T11:07:37.349Z,29.20
2018-05-29T11:10:04.564Z,29.20
2018-05-29T11:12:32.047Z,29.00
2018-05-29T11:14:59.786Z,29.00
2018-05-29T11:17:26.070Z,29.00
2018-05-29T11:19:52.824Z,29.10
2018-05-29T11:22:21.043Z,28.90
2018-05-29T11:24:48.151Z,29.30
2018-05-29T11:27:15.377Z,29.30
2018-05-29T11:29:42.097Z,29.40
2018-05-29T11:32:09.085Z,29.70
2018-05-29T11:34:36.883Z,29.70
2018-05-29T11:37:04.172Z,30.00
2018-05-29T11:39:31.180Z,29.40
2018-05-29T11:41:57.419Z,29.40
2018-05-29T11:44:23.665Z,29.60
2018-05-29T11:46:50.973Z,28.60
2018-05-29T11:49:17.248Z,28.50
2018-05-29T11:51:45.232Z,29.20
2018-05-29T11:54:11.498Z,29.10
2018-05-29T11:56:38.717Z,29.50
2018-05-29T11:59:05.029Z,29.70
2018-05-29T12:01:31.257Z,29.40
2018-05-29T12:03:57.734Z,29.70
2018-05-29T12:06:24.569Z,29.30
2018-05-29T12:08:50.796Z,29.30
2018-05-29T12:11:18.089Z,29.50
2018-05-29T12:13:44.413Z,30.20
2018-05-29T12:16:10.625Z,30.90
2018-05-29T12:18:37.429Z,30.30
2018-05-29T12:21:05.024Z,30.70
2018-05-29T12:23:32.046Z,31.30
2018-05-29T12:25:58.732Z,31.30
2018-05-29T12:28:25.663Z,31.10
2018-05-29T12:30:52.601Z,31.20
2018-05-29T12:33:19.863Z,31.20
2018-05-29T12:35:50.962Z,30.40
2018-05-29T12:38:19.904Z,30.80
2018-05-29T12:40:47.265Z,30.80
2018-05-29T12:43:14.308Z,31.60
2018-05-29T12:45:41.955Z,30.90
2018-05-29T12:48:09.299Z,31.50
2018-05-29T12:50:36.612Z,31.30
2018-05-29T12:53:03.455Z,31.20
2018-05-29T12:55:30.222Z,31.30
2018-05-29T12:57:56.459Z,31.90
2018-05-29T13:00:23.206Z,32.70
2018-05-29T13:02:50.768Z,32.30
2018-05-29T13:05:18.454Z,31.60
2018-05-29T13:07:45.237Z,31.60
2018-05-29T13:10:11.445Z,32.20
2018-05-29T13:12:37.862Z,32.50
2018-05-29T13:15:05.678Z,32.00
2018-05-29T13:17:33.364Z,31.50
2018-05-29T13:19:59.580Z,31.40
2018-05-29T13:22:26.223Z,31.00
2018-05-29T13:24:53.817Z,31.40
2018-05-29T13:27:21.068Z,31.30
2018-05-29T13:29:49.332Z,31.80
2018-05-29T13:32:16.840Z,31.80
2018-05-29T13:34:44.030Z,31.40
2018-05-29T13:37:10.236Z,31.30
2018-05-29T13:39:36.828Z,30.40
2018-05-29T13:42:04.413Z,31.10
2018-05-29T13:44:30.618Z,31.10
2018-05-29T13:46:58.229Z,30.50
2018-05-29T13:49:25.622Z,30.40
2018-05-29T13:51:53.183Z,30.90
2018-05-29T13:54:20.732Z,30.80
2018-05-29T13:56:47.493Z,30.80
2018-05-29T13:59:15.063Z,30.30
2018-05-29T14:01:41.349Z,30.30
2018-05-29T14:04:08.180Z,30.80
2018-05-29T14:06:34.402Z,30.00
2018-05-29T14:09:00.640Z,29.80
2018-05-29T14:11:27.453Z,29.70
2018-05-29T14:13:54.195Z,30.40
2018-05-29T14:16:20.444Z,29.90
2018-05-29T14:18:47.183Z,30.20
2018-05-29T14:21:13.972Z,30.00
2018-05-29T14:23:41.492Z,29.30
2018-05-29T14:26:07.993Z,29.30
2018-05-29T14:28:35.241Z,29.70
2018-05-29T14:31:01.499Z,29.60
2018-05-29T14:33:28.264Z,29.30
2018-05-29T14:35:54.474Z,29.00
2018-05-29T14:38:21.299Z,28.70
2018-05-29T14:40:47.988Z,29.20
2018-05-29T14:43:15.935Z,29.10
2018-05-29T14:45:42.677Z,29.10
2018-05-29T14:48:08.902Z,28.90
2018-05-29T14:50:35.688Z,29.20
2018-05-29T14:53:01.972Z,28.40
2018-05-29T14:55:28.725Z,28.70
2018-05-29T14:57:55.801Z,29.60
2018-05-29T15:00:22.021Z,29.50
2018-05-29T15:02:48.203Z,29.50
2018-05-29T15:05:15.622Z,29.50
2018-05-29T15:07:42.529Z,29.50
2018-05-29T15:10:10.985Z,29.50
2018-05-29T15:12:37.994Z,29.60
2018-05-29T15:15:04.315Z,29.60
2018-05-29T15:17:31.061Z,29.80
2018-05-29T15:19:58.677Z,29.30
2018-05-29T15:22:25.420Z,29.10
2018-05-29T15:24:52.831Z,29.30
2018-05-29T15:27:19.041Z,29.20
2018-05-29T15:29:45.875Z,28.90
2018-05-29T15:32:12.128Z,29.00
2018-05-29T15:34:38.648Z,28.30
2018-05-29T15:37:05.363Z,27.90
2018-05-29T15:39:32.606Z,28.90
2018-05-29T15:42:00.195Z,29.00
2018-05-29T15:44:26.933Z,29.00
2018-05-29T15:46:54.703Z,28.90
2018-05-29T15:49:20.925Z,28.50
2018-05-29T15:51:47.120Z,28.50
2018-05-29T15:54:14.104Z,27.70
2018-05-29T15:56:41.109Z,27.70
2018-05-29T15:59:09.166Z,29.10
2018-05-29T16:01:35.901Z,28.60
2018-05-29T16:04:02.835Z,29.00
2018-05-29T16:06:29.424Z,29.20
2018-05-29T16:08:56.989Z,29.10
2018-05-29T16:11:24.653Z,28.90
2018-05-29T16:13:52.397Z,28.90
2018-05-29T16:16:19.344Z,28.50
2018-05-29T16:18:46.340Z,28.80
2018-05-29T16:21:13.149Z,28.80
2018-05-29T16:23:39.416Z,28.40
2018-05-29T16:26:06.647Z,28.50
2018-05-29T16:28:33.700Z,28.70
2018-05-29T16:31:00.838Z,28.30
2018-05-29T16:33:28.964Z,27.90
2018-05-29T16:35:55.212Z,28.20
2018-05-29T16:38:21.415Z,28.10
2018-05-29T16:40:48.845Z,28.00
2018-05-29T16:43:15.639Z,28.00
2018-05-29T16:45:42.114Z,28.10
2018-05-29T16:48:08.296Z,28.70
2018-05-29T16:50:36.641Z,28.90
2018-05-29T16:53:02.847Z,28.90
2018-05-29T16:55:29.365Z,28.60
2018-05-29T16:57:56.993Z,28.40
2018-05-29T17:00:23.925Z,28.30
2018-05-29T17:02:50.400Z,28.30
2018-05-29T17:05:17.147Z,28.30
2018-05-29T17:07:44.156Z,28.90
2018-05-29T17:10:11.167Z,29.10
2018-05-29T17:12:37.446Z,29.10
2018-05-29T17:15:03.716Z,29.90
2018-05-29T17:17:30.489Z,30.30
2018-05-29T17:19:57.501Z,29.80
2018-05-29T17:22:24.860Z,29.60
2018-05-29T17:24:51.871Z,29.40
2018-05-29T17:27:19.083Z,29.40
2018-05-29T17:29:46.245Z,30.20
2018-05-29T17:32:14.150Z,30.70
2018-05-29T17:34:40.618Z,30.70
2018-05-29T17:37:08.832Z,30.60
2018-05-29T17:39:36.306Z,29.60
2018-05-29T17:42:02.578Z,29.60
2018-05-29T17:44:29.458Z,30.10
2018-05-29T17:46:57.003Z,33.30
2018-05-29T17:49:24.994Z,34.50
2018-05-29T17:51:51.761Z,34.50
2018-05-29T17:54:18.980Z,35.50
2018-05-29T17:56:45.977Z,36.90
2018-05-29T17:59:12.736Z,36.90
2018-05-29T18:01:40.232Z,37.70
2018-05-29T18:04:06.677Z,38.30
2018-05-29T18:06:34.318Z,39.90
2018-05-29T18:09:01.793Z,39.00
2018-05-29T18:11:28.384Z,38.90
2018-05-29T18:13:55.925Z,39.20
2018-05-29T18:16:22.864Z,39.20
2018-05-29T18:18:49.532Z,39.30
2018-05-29T18:21:16.325Z,39.50
2018-05-29T18:23:44.193Z,39.10
2018-05-29T18:26:11.421Z,40.10
2018-05-29T18:28:38.283Z,39.90
2018-05-29T18:31:04.787Z,40.20
2018-05-29T18:33:31.604Z,40.30
2018-05-29T18:35:58.177Z,40.30
2018-05-29T18:38:24.470Z,40.40
2018-05-29T18:40:51.385Z,40.80
2018-05-29T18:43:18.269Z,40.70
2018-05-29T18:45:45.244Z,39.60
2018-05-29T18:48:11.526Z,39.60
2018-05-29T18:50:38.048Z,39.80
2018-05-29T18:53:06.223Z,40.20
2018-05-29T18:55:34.106Z,40.80
2018-05-29T18:58:01.849Z,40.70
2018-05-29T19:00:28.091Z,41.50
2018-05-29T19:02:55.282Z,42.80
2018-05-29T19:05:22.195Z,43.00
2018-05-29T19:07:48.406Z,43.00
2018-05-29T19:10:14.697Z,43.40
2018-05-29T19:12:41.497Z,44.40
2018-05-29T19:15:07.786Z,45.90
2018-05-29T19:17:34.022Z,47.00
2018-05-29T19:20:00.960Z,48.00
2018-05-29T19:22:27.920Z,49.20
2018-05-29T19:24:54.376Z,49.90
2018-05-29T19:27:20.685Z,50.60
2018-05-29T19:29:47.623Z,50.40
2018-05-29T19:32:14.662Z,51.00
2018-05-29T19:34:41.045Z,52.30
2018-05-29T19:37:09.216Z,52.90
2018-05-29T19:39:37.217Z,52.40
2018-05-29T19:42:04.509Z,52.30
2018-05-29T19:44:31.187Z,53.00
2018-05-29T19:46:58.898Z,53.80
2018-05-29T19:49:25.184Z,53.80
2018-05-29T19:51:52.058Z,54.60
2018-05-29T19:54:18.395Z,55.20
2018-05-29T19:56:45.557Z,55.90
2018-05-29T19:59:12.904Z,57.00
2018-05-29T20:01:40.452Z,57.20
2018-05-29T20:04:06.910Z,57.10
2018-05-29T20:06:33.197Z,57.30
2018-05-29T20:08:59.647Z,57.50
2018-05-29T20:11:26.953Z,57.80
2018-05-29T20:13:54.336Z,59.80
2018-05-29T20:16:21.207Z,59.70
2018-05-29T20:18:47.650Z,59.70
2018-05-29T20:21:13.941Z,58.40
2018-05-29T20:23:40.953Z,61.00
2018-05-29T20:26:08.613Z,65.00
2018-05-29T20:28:34.875Z,64.80
2018-05-29T20:31:01.762Z,62.10
2018-05-29T20:33:28.474Z,64.40
2018-05-29T20:35:56.049Z,63.30
2018-05-29T20:38:22.817Z,63.20
2018-05-29T20:40:50.660Z,61.90
2018-05-29T20:43:17.093Z,64.10
2018-05-29T20:45:43.296Z,62.80
2018-05-29T20:48:10.602Z,66.30
2018-05-29T20:50:37.432Z,66.50
2018-05-29T20:53:03.739Z,65.20
2018-05-29T20:55:31.562Z,64.80
2018-05-29T20:57:58.668Z,65.40
2018-05-29T21:00:26.100Z,65.30
2018-05-29T21:02:52.843Z,65.70
2018-05-29T21:05:19.079Z,65.10
2018-05-29T21:07:45.804Z,64.50
2018-05-29T21:10:12.375Z,64.60
2018-05-29T21:12:39.351Z,64.90
2018-05-29T21:15:07.338Z,65.30
2018-05-29T21:17:34.596Z,65.20
2018-05-29T21:20:01.460Z,64.90
2018-05-29T21:22:27.683Z,65.80
2018-05-29T21:24:53.910Z,64.20
2018-05-29T21:27:20.719Z,65.30
2018-05-29T21:29:46.976Z,65.00
2018-05-29T21:32:13.968Z,64.60
2018-05-29T21:34:41.228Z,65.20
2018-05-29T21:37:08.780Z,65.40
2018-05-29T21:39:36.382Z,64.90
2018-05-29T21:42:03.449Z,64.50
2018-05-29T21:44:29.683Z,64.50
2018-05-29T21:46:56.068Z,64.40
2018-05-29T21:49:22.457Z,63.90
2018-05-29T21:51:48.631Z,64.70
2018-05-29T21:54:15.390Z,64.80
2018-05-29T21:56:41.669Z,64.30
2018-05-29T21:59:08.001Z,64.20
2018-05-29T22:01:35.215Z,65.10
2018-05-29T22:04:04.235Z,65.90
2018-05-29T22:06:30.452Z,65.10
2018-05-29T22:08:57.568Z,64.60
2018-05-29T22:11:24.594Z,65.70
2018-05-29T22:13:50.897Z,65.60
2018-05-29T22:16:17.103Z,66.00
2018-05-29T22:18:43.803Z,66.20
2018-05-29T22:21:11.351Z,65.70
2018-05-29T22:23:37.555Z,65.70
2018-05-29T22:26:05.250Z,65.70
2018-05-29T22:28:32.492Z,65.60
2018-05-29T22:31:00.284Z,66.20
2018-05-29T22:33:26.489Z,66.30
2018-05-29T22:35:52.918Z,66.20
2018-05-29T22:38:19.145Z,66.20
2018-05-29T22:40:45.375Z,65.70
2018-05-29T22:43:11.602Z,64.90
2018-05-29T22:45:38.341Z,65.60
2018-05-29T22:48:05.082Z,65.50
2018-05-29T22:50:31.292Z,65.60
2018-05-29T22:52:58.490Z,64.90
2018-05-29T22:55:25.382Z,64.90
2018-05-29T22:57:52.335Z,66.00
2018-05-29T23:00:19.814Z,65.90
2018-05-29T23:02:46.040Z,66.50
2018-05-29T23:05:13.556Z,65.40
2018-05-29T23:07:40.254Z,65.40
2018-05-29T23:10:07.904Z,64.90
2018-05-29T23:12:34.475Z,64.80
2018-05-29T23:15:02.887Z,65.30
2018-05-29T23:17:30.027Z,65.20
2018-05-29T23:19:56.209Z,65.20
2018-05-29T23:22:22.648Z,66.60
2018-05-29T23:24:49.849Z,66.60
2018-05-29T23:27:16.824Z,67.40
2018-05-29T23:29:43.046Z,67.40
2018-05-29T23:32:09.795Z,66.80
2018-05-29T23:34:36.025Z,66.10
2018-05-29T23:37:02.781Z,65.60
2018-05-29T23:39:30.517Z,66.00
2018-05-29T23:41:56.885Z,66.50
2018-05-29T23:44:24.058Z,65.60
2018-05-29T23:46:50.297Z,66.00
2018-05-29T23:49:17.819Z,66.30
2018-05-29T23:51:44.910Z,66.30
2018-05-29T23:54:12.296Z,66.40
2018-05-29T23:56:39.335Z,65.80
2018-05-29T23:59:06.307Z,65.80
